createdAt,value
2022-08-28T00:00:41.688Z,1.92
2022-08-28T00:03:10.910Z,2.70
2022-08-28T00:05:39.980Z,3.17
2022-08-28T00:08:08.750Z,3.05
2022-08-28T00:10:39.219Z,2.15
2022-08-28T00:13:08.040Z,2.08
2022-08-28T00:15:39.025Z,2.08
2022-08-28T00:18:07.572Z,2.72
2022-08-28T00:20:36.696Z,2.10
2022-08-28T00:23:05.872Z,1.73
2022-08-28T00:25:34.939Z,1.63
2022-08-28T00:28:08.493Z,2.60
2022-08-28T00:30:41.829Z,2.03
2022-08-28T00:33:12.786Z,2.25
2022-08-28T00:35:41.608Z,2.95
2022-08-28T00:38:10.267Z,2.25
2022-08-28T00:40:38.666Z,2.45
2022-08-28T00:43:09.411Z,2.58
2022-08-28T00:45:40.253Z,2.20
2022-08-28T00:48:08.516Z,1.92
2022-08-28T00:50:51.072Z,1.90
2022-08-28T00:53:19.670Z,2.00
2022-08-28T00:55:47.728Z,1.50
2022-08-28T00:58:16.127Z,1.95
2022-08-28T01:00:45.241Z,1.90
2022-08-28T01:03:13.060Z,2.08
2022-08-28T01:05:43.537Z,1.55
2022-08-28T01:08:11.361Z,2.55
2022-08-28T01:10:41.604Z,2.10
2022-08-28T01:13:09.437Z,1.70
2022-08-28T01:15:38.317Z,2.65
2022-08-28T01:18:10.203Z,1.83
2022-08-28T01:20:44.859Z,1.60
2022-08-28T01:23:21.823Z,1.60
2022-08-28T01:25:52.482Z,1.50
2022-08-28T01:28:20.330Z,1.88
2022-08-28T01:30:49.849Z,2.05
2022-08-28T01:33:19.361Z,2.10
2022-08-28T01:35:55.559Z,1.67
2022-08-28T01:38:27.030Z,2.40
2022-08-28T01:40:59.470Z,1.77
2022-08-28T01:43:28.818Z,1.92
2022-08-28T01:46:02.204Z,2.15
2022-08-28T01:48:32.014Z,2.20
2022-08-28T01:51:00.182Z,1.65
2022-08-28T01:53:32.678Z,1.60
2022-08-28T01:56:04.503Z,2.10
2022-08-28T01:58:37.899Z,2.75
2022-08-28T02:01:10.619Z,1.98
2022-08-28T02:03:38.411Z,2.08
2022-08-28T02:06:07.122Z,2.20
2022-08-28T02:08:34.923Z,1.92
2022-08-28T02:11:06.200Z,1.90
2022-08-28T02:13:35.034Z,2.45
2022-08-28T02:16:03.866Z,2.30
2022-08-28T02:18:31.623Z,2.55
2022-08-28T02:20:59.394Z,2.20
2022-08-28T02:23:27.266Z,2.60
2022-08-28T02:25:54.982Z,1.80
2022-08-28T02:28:24.043Z,2.28
2022-08-28T02:30:51.797Z,2.17
2022-08-28T02:33:19.683Z,2.47
2022-08-28T02:35:47.335Z,2.17
2022-08-28T02:38:15.295Z,3.15
2022-08-28T02:40:43.088Z,2.78
2022-08-28T02:43:10.912Z,2.20
2022-08-28T02:45:39.988Z,2.85
2022-08-28T02:48:14.652Z,2.30
2022-08-28T02:50:45.198Z,2.03
2022-08-28T02:53:13.322Z,2.38
2022-08-28T02:55:41.345Z,2.10
2022-08-28T02:58:09.632Z,2.05
2022-08-28T03:00:37.657Z,2.40
2022-08-28T03:03:06.807Z,2.28
2022-08-28T03:05:34.561Z,1.98
2022-08-28T03:08:02.259Z,2.40
2022-08-28T03:10:29.936Z,1.98
2022-08-28T03:12:57.632Z,1.75
2022-08-28T03:15:25.418Z,1.88
2022-08-28T03:17:53.093Z,1.92
2022-08-28T03:20:22.177Z,2.05
2022-08-28T03:23:07.512Z,2.50
2022-08-28T03:25:35.576Z,3.10
2022-08-28T03:28:03.533Z,2.30
2022-08-28T03:30:31.272Z,2.53
2022-08-28T03:32:59.041Z,2.63
2022-08-28T03:35:28.328Z,3.13
2022-08-28T03:37:56.062Z,2.63
2022-08-28T03:40:23.778Z,2.53
2022-08-28T03:42:53.348Z,2.67
2022-08-28T03:45:22.082Z,3.22
2022-08-28T03:47:50.858Z,2.60
2022-08-28T03:50:19.869Z,2.60
2022-08-28T03:52:49.186Z,2.42
2022-08-28T03:55:18.798Z,2.75
2022-08-28T03:57:46.801Z,2.97
2022-08-28T04:00:16.408Z,2.80
2022-08-28T04:02:46.100Z,3.08
2022-08-28T04:05:14.357Z,3.08
2022-08-28T04:07:42.062Z,2.83
2022-08-28T04:10:12.162Z,2.95
2022-08-28T04:12:39.935Z,3.08
2022-08-28T04:15:09.016Z,3.08
2022-08-28T04:17:39.583Z,3.17
2022-08-28T04:20:11.201Z,2.80
2022-08-28T04:22:39.558Z,2.75
2022-08-28T04:25:08.896Z,2.70
2022-08-28T04:27:37.930Z,3.40
2022-08-28T04:30:07.032Z,3.03
2022-08-28T04:32:38.346Z,3.20
2022-08-28T04:35:09.042Z,2.72
2022-08-28T04:37:37.268Z,2.92
2022-08-28T04:40:05.715Z,2.88
2022-08-28T04:42:33.540Z,3.17
2022-08-28T04:45:02.768Z,3.15
2022-08-28T04:47:30.976Z,2.80
2022-08-28T04:49:58.702Z,3.03
2022-08-28T04:52:26.446Z,2.60
2022-08-28T04:54:54.051Z,2.58
2022-08-28T04:57:21.788Z,2.55
2022-08-28T04:59:49.454Z,2.30
2022-08-28T05:02:18.538Z,3.05
2022-08-28T05:04:46.880Z,2.42
2022-08-28T05:07:14.606Z,2.50
2022-08-28T05:09:43.412Z,2.58
2022-08-28T05:12:17.034Z,2.70
2022-08-28T05:14:45.614Z,3.60
2022-08-28T05:17:15.095Z,2.67
2022-08-28T05:19:44.164Z,2.88
2022-08-28T05:22:12.047Z,2.55
2022-08-28T05:24:40.388Z,2.72
2022-08-28T05:27:08.686Z,3.78
2022-08-28T05:29:36.531Z,2.70
2022-08-28T05:32:05.549Z,2.70
2022-08-28T05:34:33.211Z,4.22
2022-08-28T05:37:02.258Z,2.80
2022-08-28T05:39:30.056Z,3.83
2022-08-28T05:41:57.692Z,3.47
2022-08-28T05:44:25.360Z,2.92
2022-08-28T05:46:53.077Z,3.00
2022-08-28T05:49:20.938Z,2.83
2022-08-28T05:51:49.970Z,3.80
2022-08-28T05:54:19.296Z,2.95
2022-08-28T05:56:47.297Z,3.25
2022-08-28T05:59:16.101Z,3.22
2022-08-28T06:01:46.491Z,3.75
2022-08-28T06:04:17.719Z,3.97
2022-08-28T06:06:46.766Z,3.33
2022-08-28T06:09:16.437Z,3.95
2022-08-28T06:11:46.445Z,7.93
2022-08-28T06:14:16.605Z,4.15
2022-08-28T06:16:48.321Z,4.57
2022-08-28T06:19:17.455Z,4.10
2022-08-28T06:21:46.860Z,4.00
2022-08-28T06:24:15.135Z,7.35
2022-08-28T06:26:42.834Z,4.47
2022-08-28T06:29:13.563Z,6.10
2022-08-28T06:31:41.300Z,6.97
2022-08-28T06:34:09.939Z,6.78
2022-08-28T06:36:40.294Z,5.82
2022-08-28T06:39:09.530Z,7.43
2022-08-28T06:41:40.987Z,7.78
2022-08-28T06:44:08.856Z,8.18
2022-08-28T06:46:38.059Z,7.38
2022-08-28T06:49:08.022Z,9.15
2022-08-28T06:51:36.631Z,8.60
2022-08-28T06:54:05.083Z,8.60
2022-08-28T06:56:33.649Z,9.43
2022-08-28T06:59:01.800Z,11.50
2022-08-28T07:01:32.974Z,9.80
2022-08-28T07:04:04.028Z,8.52
2022-08-28T07:06:34.120Z,10.70
2022-08-28T07:09:01.934Z,11.60
2022-08-28T07:11:31.388Z,11.60
2022-08-28T07:14:00.681Z,10.80
2022-08-28T07:16:30.608Z,12.82
2022-08-28T07:18:59.469Z,11.93
2022-08-28T07:21:28.527Z,12.38
2022-08-28T07:23:56.388Z,11.45
2022-08-28T07:26:26.133Z,11.73
2022-08-28T07:29:09.324Z,11.68
2022-08-28T07:31:40.814Z,13.38
2022-08-28T07:34:09.498Z,12.30
2022-08-28T07:36:39.338Z,12.48
2022-08-28T07:39:08.386Z,12.70
2022-08-28T07:41:39.328Z,12.98
2022-08-28T07:44:28.327Z,13.05
2022-08-28T07:46:57.110Z,12.32
2022-08-28T07:49:25.883Z,11.93
2022-08-28T07:51:54.985Z,12.10
2022-08-28T07:54:22.929Z,12.25
2022-08-28T07:56:51.103Z,11.65
2022-08-28T07:59:19.292Z,11.50
2022-08-28T08:01:50.653Z,11.38
2022-08-28T08:04:20.916Z,11.23
2022-08-28T08:06:48.947Z,11.38
2022-08-28T08:09:19.457Z,11.10
2022-08-28T08:11:48.151Z,10.85
2022-08-28T08:14:17.706Z,11.90
2022-08-28T08:16:48.403Z,11.50
2022-08-28T08:19:18.888Z,11.75
2022-08-28T08:21:53.136Z,11.20
2022-08-28T08:24:26.566Z,10.80
2022-08-28T08:26:59.675Z,10.68
2022-08-28T08:29:28.692Z,11.57
2022-08-28T08:31:58.036Z,9.35
2022-08-28T08:34:26.484Z,10.73
2022-08-28T08:36:54.298Z,10.13
2022-08-28T08:39:22.030Z,9.20
2022-08-28T08:41:54.710Z,9.68
2022-08-28T08:44:28.529Z,10.93
2022-08-28T08:47:14.069Z,9.98
2022-08-28T08:49:48.910Z,10.45
2022-08-28T08:52:35.951Z,8.60
2022-08-28T08:55:15.110Z,9.00
2022-08-28T08:57:49.173Z,10.70
2022-08-28T09:00:18.895Z,9.80
2022-08-28T09:02:54.276Z,10.75
2022-08-28T09:05:28.583Z,9.48
2022-08-28T09:07:57.952Z,8.35
2022-08-28T09:10:35.189Z,9.65
2022-08-28T09:13:13.163Z,9.30
2022-08-28T09:15:48.678Z,8.68
2022-08-28T09:18:22.255Z,9.93
2022-08-28T09:20:51.101Z,9.77
2022-08-28T09:23:18.830Z,10.30
2022-08-28T09:25:53.875Z,12.35
2022-08-28T09:28:26.542Z,11.05
2022-08-28T09:31:06.214Z,10.35
2022-08-28T09:33:42.123Z,11.48
2022-08-28T09:36:37.625Z,9.75
2022-08-28T09:39:12.959Z,10.73
2022-08-28T09:42:04.518Z,10.13
2022-08-28T09:44:34.001Z,11.15
2022-08-28T09:47:02.365Z,10.32
2022-08-28T09:49:31.436Z,10.10
2022-08-28T09:52:01.627Z,11.98
2022-08-28T09:54:33.853Z,12.18
2022-08-28T09:57:03.422Z,11.90
2022-08-28T09:59:32.987Z,13.18
2022-08-28T10:02:22.319Z,12.40
2022-08-28T10:05:01.259Z,13.43
2022-08-28T10:07:38.442Z,12.13
2022-08-28T10:10:21.336Z,11.80
2022-08-28T10:13:00.323Z,12.25
2022-08-28T10:15:34.594Z,13.95
2022-08-28T10:18:19.981Z,15.70
2022-08-28T10:20:58.614Z,13.57
2022-08-28T10:23:33.958Z,14.10
2022-08-28T10:26:17.505Z,14.25
2022-08-28T10:28:56.102Z,14.60
2022-08-28T10:31:36.212Z,14.23
2022-08-28T10:34:27.452Z,15.38
2022-08-28T10:37:03.670Z,15.93
2022-08-28T10:39:44.955Z,15.77
2022-08-28T10:42:13.503Z,15.00
2022-08-28T10:44:50.417Z,15.57
2022-08-28T10:47:22.818Z,15.13
2022-08-28T10:50:01.738Z,14.48
2022-08-28T10:52:34.289Z,14.20
2022-08-28T10:55:09.253Z,13.70
2022-08-28T10:57:42.624Z,15.90
2022-08-28T11:00:13.303Z,15.25
2022-08-28T11:02:48.949Z,15.95
2022-08-28T11:05:21.795Z,16.13
2022-08-28T11:07:55.297Z,14.57
2022-08-28T11:10:40.062Z,14.95
2022-08-28T11:13:10.197Z,15.90
2022-08-28T11:15:48.095Z,17.58
2022-08-28T11:18:41.463Z,16.83
2022-08-28T11:21:16.840Z,16.65
2022-08-28T11:23:50.007Z,16.58
2022-08-28T11:26:30.748Z,18.85
2022-08-28T11:29:00.334Z,16.85
2022-08-28T11:31:32.276Z,15.82
2022-08-28T11:34:02.693Z,15.90
2022-08-28T11:37:02.842Z,15.48
2022-08-28T11:39:30.837Z,15.95
2022-08-28T11:42:32.214Z,15.68
2022-08-28T11:45:00.612Z,16.73
2022-08-28T11:47:46.554Z,15.23
2022-08-28T11:50:21.635Z,17.00
2022-08-28T11:53:17.926Z,16.23
2022-08-28T11:56:08.732Z,16.38
2022-08-28T11:58:43.426Z,17.20
2022-08-28T12:01:14.203Z,17.20
2022-08-28T12:03:44.623Z,15.88
2022-08-28T12:06:14.369Z,18.08
2022-08-28T12:09:09.966Z,14.68
2022-08-28T12:12:11.278Z,16.85
2022-08-28T12:15:11.202Z,15.75
2022-08-28T12:17:51.966Z,14.43
2022-08-28T12:20:40.595Z,14.73
2022-08-28T12:23:51.166Z,15.45
2022-08-28T12:26:27.630Z,15.43
2022-08-28T12:28:58.014Z,13.85
2022-08-28T12:32:14.448Z,16.10
2022-08-28T12:34:46.930Z,14.05
2022-08-28T12:37:39.603Z,13.77
2022-08-28T12:40:22.034Z,15.40
2022-08-28T12:42:55.359Z,13.65
2022-08-28T12:45:27.699Z,13.40
2022-08-28T12:48:00.018Z,11.52
2022-08-28T12:50:32.174Z,12.85
2022-08-28T12:53:02.518Z,11.93
2022-08-28T12:55:31.216Z,12.55
2022-08-28T12:58:00.713Z,12.43
2022-08-28T13:00:34.840Z,10.68
2022-08-28T13:03:03.887Z,13.45
2022-08-28T13:05:34.401Z,14.10
2022-08-28T13:08:08.554Z,12.23
2022-08-28T13:10:39.359Z,11.60
2022-08-28T13:13:12.335Z,12.52
2022-08-28T13:15:57.919Z,12.55
2022-08-28T13:18:42.846Z,15.52
2022-08-28T13:21:15.861Z,12.85
2022-08-28T13:23:43.588Z,14.32
2022-08-28T13:26:12.598Z,13.57
2022-08-28T13:28:43.782Z,13.70
2022-08-28T13:31:23.959Z,13.35
2022-08-28T13:34:07.207Z,13.25
2022-08-28T13:36:45.464Z,13.23
2022-08-28T13:39:15.002Z,13.82
2022-08-28T13:41:45.108Z,12.88
2022-08-28T13:44:30.539Z,16.15
2022-08-28T13:46:59.669Z,14.52
2022-08-28T13:49:29.848Z,14.85
2022-08-28T13:51:59.213Z,13.93
2022-08-28T13:54:27.740Z,14.30
2022-08-28T13:56:58.783Z,13.77
2022-08-28T13:59:28.777Z,15.77
2022-08-28T14:02:16.703Z,12.85
2022-08-28T14:04:44.814Z,14.85
2022-08-28T14:07:15.193Z,13.93
2022-08-28T14:09:43.144Z,14.85
2022-08-28T14:12:12.043Z,14.70
2022-08-28T14:14:41.373Z,14.32
2022-08-28T14:17:09.993Z,12.57
2022-08-28T14:19:38.171Z,12.52
2022-08-28T14:22:06.096Z,13.85
2022-08-28T14:24:33.835Z,14.93
2022-08-28T14:27:02.564Z,13.50
2022-08-28T14:29:31.472Z,13.27
2022-08-28T14:32:01.827Z,13.38
2022-08-28T14:34:29.617Z,13.75
2022-08-28T14:36:57.477Z,14.30
2022-08-28T14:39:27.294Z,15.80
2022-08-28T14:41:55.881Z,13.75
2022-08-28T14:44:25.111Z,15.27
2022-08-28T14:46:56.077Z,13.82
2022-08-28T14:49:28.257Z,13.45
2022-08-28T14:51:57.049Z,12.98
2022-08-28T14:54:26.308Z,13.02
2022-08-28T14:56:55.132Z,12.70
2022-08-28T14:59:25.684Z,11.85
2022-08-28T15:01:55.294Z,13.20
2022-08-28T15:04:26.031Z,13.07
2022-08-28T15:06:59.159Z,13.48
2022-08-28T15:09:27.409Z,12.65
2022-08-28T15:11:55.404Z,13.23
2022-08-28T15:14:23.143Z,8.88
2022-08-28T15:16:50.937Z,7.57
2022-08-28T15:19:19.054Z,7.40
2022-08-28T15:21:49.492Z,8.35
2022-08-28T15:24:24.102Z,8.40
2022-08-28T15:26:52.117Z,7.60
2022-08-28T15:29:19.832Z,8.43
2022-08-28T15:31:49.995Z,8.02
2022-08-28T15:34:22.037Z,7.85
2022-08-28T15:36:54.702Z,8.18
2022-08-28T15:39:42.236Z,8.15
2022-08-28T15:42:11.392Z,7.05
2022-08-28T15:44:39.604Z,6.40
2022-08-28T15:47:07.815Z,6.57
2022-08-28T15:49:44.662Z,6.93
2022-08-28T15:52:16.781Z,8.23
2022-08-28T15:54:45.832Z,7.85
2022-08-28T15:57:13.543Z,9.48
2022-08-28T15:59:49.129Z,9.10
2022-08-28T16:02:18.971Z,8.50
2022-08-28T16:04:46.842Z,10.43
2022-08-28T16:07:14.606Z,10.98
2022-08-28T16:09:42.380Z,11.05
2022-08-28T16:12:11.532Z,11.52
2022-08-28T16:14:39.221Z,13.10
2022-08-28T16:17:10.690Z,12.27
2022-08-28T16:19:39.052Z,11.30
2022-08-28T16:22:06.908Z,9.10
2022-08-28T16:24:34.810Z,14.35
2022-08-28T16:27:02.727Z,13.30
2022-08-28T16:29:32.114Z,12.75
2022-08-28T16:31:59.832Z,12.27
2022-08-28T16:35:56.888Z,11.18
2022-08-28T16:37:19.569Z,11.88
2022-08-28T16:39:54.355Z,10.82
2022-08-28T16:42:22.118Z,12.07
2022-08-28T16:44:51.240Z,11.68
2022-08-28T16:47:18.954Z,11.65
2022-08-28T16:49:46.626Z,11.02
2022-08-28T16:52:14.307Z,11.30
2022-08-28T16:54:47.459Z,12.07
2022-08-28T16:57:16.684Z,10.25
2022-08-28T16:59:44.426Z,10.55
2022-08-28T17:02:13.603Z,10.75
2022-08-28T17:04:41.775Z,10.20
2022-08-28T17:07:09.550Z,10.40
2022-08-28T17:09:37.239Z,10.02
2022-08-28T17:12:05.105Z,10.55
2022-08-28T17:14:33.732Z,9.60
2022-08-28T17:17:01.654Z,9.95
2022-08-28T17:19:30.983Z,9.18
2022-08-28T17:22:16.119Z,10.63
2022-08-28T17:24:43.880Z,9.88
2022-08-28T17:27:14.417Z,10.07
2022-08-28T17:29:49.171Z,9.30
2022-08-28T17:32:16.874Z,9.45
2022-08-28T17:34:45.973Z,9.18
2022-08-28T17:37:13.727Z,9.05
2022-08-28T17:39:41.422Z,9.48
2022-08-28T17:42:11.183Z,9.45
2022-08-28T17:44:38.920Z,10.00
2022-08-28T17:47:06.945Z,9.23
2022-08-28T17:49:34.674Z,9.95
2022-08-28T17:52:04.203Z,9.88
2022-08-28T17:54:31.999Z,9.63
2022-08-28T17:57:00.078Z,10.27
2022-08-28T17:59:27.853Z,10.15
2022-08-28T18:01:55.820Z,10.82
2022-08-28T18:04:24.632Z,10.68
2022-08-28T18:06:54.079Z,10.07
2022-08-28T18:09:24.017Z,10.75
2022-08-28T18:11:52.184Z,11.25
2022-08-28T18:14:19.994Z,10.10
2022-08-28T18:16:48.273Z,10.00
2022-08-28T18:19:16.780Z,11.32
2022-08-28T18:24:25.383Z,12.70
2022-08-28T18:26:53.776Z,12.20
2022-08-28T18:29:20.253Z,11.05
2022-08-28T18:31:46.721Z,11.80
2022-08-28T18:34:13.601Z,11.43
2022-08-28T18:36:40.832Z,10.00
2022-08-28T18:39:07.624Z,10.77
2022-08-28T18:41:43.871Z,11.45
2022-08-28T18:51:53.054Z,10.98
2022-08-28T18:54:20.285Z,12.25
2022-08-28T18:56:49.106Z,11.50
2022-08-28T18:59:16.936Z,11.93
2022-08-28T19:01:43.367Z,12.50
2022-08-28T19:04:10.195Z,11.85
2022-08-28T19:06:36.641Z,12.18
2022-08-28T19:11:57.394Z,11.90
2022-08-28T19:14:23.706Z,11.35
2022-08-28T19:16:50.018Z,10.82
2022-08-28T19:19:16.358Z,10.60
2022-08-28T19:21:43.294Z,10.68
2022-08-28T19:24:09.631Z,11.15
2022-08-28T19:26:36.360Z,11.63
2022-08-28T19:29:04.429Z,11.13
2022-08-28T19:36:36.807Z,10.93
2022-08-28T19:39:04.802Z,10.90
2022-08-28T19:41:32.318Z,9.95
2022-08-28T19:43:59.156Z,10.98
2022-08-28T19:46:25.862Z,10.95
2022-08-28T19:48:53.194Z,11.23
2022-08-28T19:51:23.463Z,10.32
2022-08-28T20:00:28.583Z,10.13
2022-08-28T20:02:57.056Z,11.38
2022-08-28T20:05:24.442Z,11.98
2022-08-28T20:07:51.357Z,12.13
2022-08-28T20:10:19.049Z,13.23
2022-08-28T20:12:48.538Z,11.25
2022-08-28T20:15:16.699Z,10.80
2022-08-28T20:21:09.339Z,10.80
2022-08-28T20:23:35.664Z,9.85
2022-08-28T20:26:02.407Z,10.90
2022-08-28T20:28:30.921Z,10.25
2022-08-28T20:30:57.430Z,10.90
2022-08-28T20:33:23.812Z,10.68
2022-08-28T20:35:59.797Z,10.48
2022-08-28T20:43:29.592Z,10.20
2022-08-28T20:45:55.933Z,9.75
2022-08-28T20:48:22.317Z,10.35
2022-08-28T20:50:50.826Z,10.25
2022-08-28T20:53:36.813Z,10.10
2022-08-28T20:56:07.329Z,10.07
2022-08-28T20:58:34.864Z,9.50
2022-08-28T21:08:49.170Z,11.20
2022-08-28T21:11:15.983Z,9.48
2022-08-28T21:13:42.436Z,10.07
2022-08-28T21:16:09.064Z,8.90
2022-08-28T21:18:35.571Z,10.02
2022-08-28T21:21:03.747Z,9.02
2022-08-28T21:23:30.343Z,10.10
2022-08-28T21:25:57.889Z,10.32
2022-08-28T21:33:27.367Z,9.82
2022-08-28T21:35:53.650Z,10.15
2022-08-28T21:38:20.156Z,9.38
2022-08-28T21:40:46.583Z,9.75
2022-08-28T21:43:13.358Z,10.13
2022-08-28T21:45:39.715Z,10.10
2022-08-28T21:48:06.091Z,9.98
2022-08-28T21:50:35.104Z,8.75
2022-08-28T21:58:04.700Z,9.82
2022-08-28T22:00:31.054Z,9.38
2022-08-28T22:02:57.398Z,10.80
2022-08-28T22:05:23.952Z,10.10
2022-08-28T22:07:50.273Z,10.38
2022-08-28T22:10:17.065Z,10.20
2022-08-28T22:12:46.022Z,10.60
2022-08-28T22:15:15.095Z,10.07
2022-08-28T22:17:42.849Z,9.57
2022-08-28T22:20:11.195Z,10.30
2022-08-28T22:22:56.572Z,10.60
2022-08-28T22:25:24.480Z,10.55
2022-08-28T22:27:52.195Z,11.52
2022-08-28T22:30:21.594Z,10.10
2022-08-28T22:32:49.426Z,10.10
2022-08-28T22:35:17.230Z,10.05
2022-08-28T22:37:45.035Z,10.38
2022-08-28T22:40:13.880Z,9.65
2022-08-28T22:42:42.357Z,10.68
2022-08-28T22:45:11.094Z,11.13
2022-08-28T22:47:40.525Z,9.80
2022-08-28T22:50:09.258Z,10.13
2022-08-28T22:52:37.331Z,10.52
2022-08-28T22:55:06.673Z,9.90
2022-08-28T22:57:34.462Z,10.10
2022-08-28T23:00:04.002Z,10.00
2022-08-28T23:02:34.108Z,10.15
2022-08-28T23:05:03.340Z,10.55
2022-08-28T23:07:31.368Z,9.50
2022-08-28T23:09:59.008Z,9.93
2022-08-28T23:12:26.912Z,10.10
2022-08-28T23:14:54.637Z,9.25
2022-08-28T23:17:22.490Z,9.50
2022-08-28T23:24:53.317Z,10.20
2022-08-28T23:27:35.775Z,11.00
2022-08-28T23:30:05.124Z,9.32
2022-08-28T23:32:31.465Z,8.65
2022-08-28T23:35:01.882Z,8.47
2022-08-28T23:37:29.645Z,8.50
2022-08-28T23:40:00.857Z,7.15
2022-08-28T23:42:28.681Z,7.13
2022-08-28T23:44:56.946Z,7.18
2022-08-28T23:47:24.664Z,7.70
2022-08-28T23:49:52.369Z,7.20
2022-08-28T23:52:20.157Z,8.23
2022-08-28T23:54:49.869Z,8.32
2022-08-28T23:57:18.980Z,7.47
2022-08-28T23:59:47.308Z,7.65
